createdAt,value
2019-02-02T00:00:18.819Z,95959.41
2019-02-02T00:02:22.839Z,95952.95
2019-02-02T00:04:25.999Z,95949.44
2019-02-02T00:06:28.877Z,95948.33
2019-02-02T00:08:31.850Z,95951.30
2019-02-02T00:10:34.843Z,95945.63
2019-02-02T00:12:37.768Z,95941.33
2019-02-02T00:14:41.622Z,95946.19
2019-02-02T00:16:44.571Z,95943.73
2019-02-02T00:18:48.484Z,95941.05
2019-02-02T00:20:51.477Z,95948.06
2019-02-02T00:22:56.001Z,95951.30
2019-02-02T00:24:58.989Z,95957.22
2019-02-02T00:27:04.004Z,95961.02
2019-02-02T00:29:06.784Z,95960.47
2019-02-02T00:31:09.702Z,95968.03
2019-02-02T00:33:12.627Z,95970.47
2019-02-02T00:35:16.618Z,95959.70
2019-02-02T00:37:21.603Z,95959.95
2019-02-02T00:39:24.320Z,95960.23
2019-02-02T00:41:27.278Z,95961.30
2019-02-02T00:43:30.246Z,95956.72
2019-02-02T00:45:33.131Z,95962.37
2019-02-02T00:47:36.083Z,95953.72
2019-02-02T00:49:39.005Z,95956.44
2019-02-02T00:51:41.942Z,95949.20
2019-02-02T00:53:44.869Z,95953.03
2019-02-02T00:55:47.849Z,95951.95
2019-02-02T00:57:54.162Z,95958.97
2019-02-02T00:59:55.525Z,95955.45
2019-02-02T01:01:58.423Z,95958.44
2019-02-02T01:04:03.371Z,95944.16
2019-02-02T01:06:06.349Z,95951.16
2019-02-02T01:08:09.401Z,95954.41
2019-02-02T01:10:16.262Z,95958.69
2019-02-02T01:12:19.166Z,95955.45
2019-02-02T01:14:22.053Z,95961.64
2019-02-02T01:16:25.072Z,95941.42
2019-02-02T01:18:28.143Z,95932.27
2019-02-02T01:20:32.107Z,95932.05
2019-02-02T01:22:36.141Z,95943.64
2019-02-02T01:24:39.021Z,95950.14
2019-02-02T01:26:41.950Z,95933.17
2019-02-02T01:28:44.794Z,95919.18
2019-02-02T01:30:48.748Z,95925.39
2019-02-02T01:32:51.573Z,95920.02
2019-02-02T01:34:54.491Z,95920.80
2019-02-02T01:36:58.345Z,95922.15
2019-02-02T01:39:04.630Z,95917.86
2019-02-02T01:41:07.442Z,95918.11
2019-02-02T01:43:12.438Z,95926.18
2019-02-02T01:45:19.025Z,95932.91
2019-02-02T01:47:22.204Z,95940.72
2019-02-02T01:49:25.070Z,95925.39
2019-02-02T01:51:27.949Z,95936.16
2019-02-02T01:53:31.033Z,95953.09
2019-02-02T01:55:33.910Z,95951.22
2019-02-02T01:57:37.149Z,95951.22
2019-02-02T01:59:39.967Z,95938.03
2019-02-02T02:01:42.827Z,95942.59
2019-02-02T02:03:45.780Z,95947.70
2019-02-02T02:05:48.634Z,95961.16
2019-02-02T02:07:51.618Z,95960.38
2019-02-02T02:09:55.597Z,95969.53
2019-02-02T02:11:58.426Z,95972.75
2019-02-02T02:14:01.369Z,95966.55
2019-02-02T02:16:05.894Z,95966.56
2019-02-02T02:18:08.933Z,95968.19
2019-02-02T02:20:12.379Z,95973.05
2019-02-02T02:22:15.363Z,95966.31
2019-02-02T02:24:18.380Z,95961.17
2019-02-02T02:26:21.301Z,95964.16
2019-02-02T02:28:28.206Z,95961.74
2019-02-02T02:30:28.828Z,95961.99
2019-02-02T02:32:31.691Z,95954.45
2019-02-02T02:34:34.629Z,95954.20
2019-02-02T02:36:38.600Z,95945.59
2019-02-02T02:38:42.581Z,95936.17
2019-02-02T02:40:45.485Z,95922.97
2019-02-02T02:42:48.428Z,95927.53
2019-02-02T02:44:51.335Z,95933.48
2019-02-02T02:46:54.130Z,95931.03
2019-02-02T02:48:57.192Z,95926.19
2019-02-02T02:51:00.034Z,95923.50
2019-02-02T02:53:02.962Z,95929.44
2019-02-02T02:55:07.180Z,95942.08
2019-02-02T02:57:09.965Z,95950.69
2019-02-02T02:59:13.005Z,95948.00
2019-02-02T03:03:27.450Z,95939.39
2019-02-02T03:05:30.325Z,95942.08
2019-02-02T03:07:33.157Z,95949.06
2019-02-02T03:09:36.004Z,95949.34
2019-02-02T03:11:39.869Z,95943.42
2019-02-02T03:13:42.777Z,95936.94
2019-02-02T03:15:45.849Z,95930.49
2019-02-02T03:17:48.800Z,95935.88
2019-02-02T03:19:51.740Z,95922.42
2019-02-02T03:21:54.968Z,95918.92
2019-02-02T03:23:57.826Z,95907.34
2019-02-02T03:26:00.638Z,95901.70
2019-02-02T03:28:03.606Z,95890.39
2019-02-02T03:30:08.106Z,95901.94
2019-02-02T03:32:10.964Z,95915.41
2019-02-02T03:34:13.854Z,95920.55
2019-02-02T03:36:16.781Z,95931.03
2019-02-02T03:38:19.603Z,95932.38
2019-02-02T03:40:22.458Z,95939.64
2019-02-02T03:42:25.349Z,95943.14
2019-02-02T03:44:28.361Z,95944.23
2019-02-02T03:46:31.209Z,95946.13
2019-02-02T03:48:34.120Z,95941.27
2019-02-02T03:50:38.020Z,95942.62
2019-02-02T03:52:40.910Z,95964.15
2019-02-02T03:54:43.852Z,95975.98
2019-02-02T03:56:46.638Z,95989.19
2019-02-02T03:58:49.374Z,95986.50
2019-02-02T04:00:52.577Z,95982.46
2019-02-02T04:02:55.413Z,95981.64
2019-02-02T04:05:01.065Z,95980.02
2019-02-02T04:07:03.921Z,95978.67
2019-02-02T04:09:07.463Z,95980.83
2019-02-02T04:11:10.340Z,95977.89
2019-02-02T04:13:13.267Z,95982.46
2019-02-02T04:15:19.110Z,95989.72
2019-02-02T04:17:21.885Z,95996.73
2019-02-02T04:19:24.755Z,96003.19
2019-02-02T04:21:28.800Z,96012.33
2019-02-02T04:23:31.925Z,96017.45
2019-02-02T04:25:34.925Z,96010.73
2019-02-02T04:27:37.805Z,95999.16
2019-02-02T04:29:40.802Z,95998.34
2019-02-02T04:31:46.319Z,95992.14
2019-02-02T04:33:49.256Z,95984.87
2019-02-02T04:35:52.107Z,95985.69
2019-02-02T04:37:54.943Z,95997.25
2019-02-02T04:39:57.787Z,96001.83
2019-02-02T04:42:00.653Z,96000.20
2019-02-02T04:44:03.605Z,96009.63
2019-02-02T04:46:06.600Z,96011.80
2019-02-02T04:48:09.533Z,96010.98
2019-02-02T04:50:13.795Z,96005.59
2019-02-02T04:52:16.753Z,96007.23
2019-02-02T04:54:19.765Z,96009.64
2019-02-02T04:56:22.771Z,96013.42
2019-02-02T04:58:25.629Z,96010.98
2019-02-02T05:00:28.673Z,96019.88
2019-02-02T05:02:31.465Z,96018.00
2019-02-02T05:04:34.406Z,96016.38
2019-02-02T05:06:37.287Z,96006.94
2019-02-02T05:08:41.803Z,95988.09
2019-02-02T05:10:44.810Z,95985.96
2019-02-02T05:12:47.915Z,95994.83
2019-02-02T05:14:50.787Z,96014.24
2019-02-02T05:16:53.598Z,96029.83
2019-02-02T05:18:56.521Z,96045.20
2019-02-02T05:20:59.477Z,96040.36
2019-02-02T05:23:02.544Z,96038.20
2019-02-02T05:25:05.997Z,96045.74
2019-02-02T05:27:08.756Z,96047.09
2019-02-02T05:29:11.565Z,96046.28
2019-02-02T05:31:14.437Z,96042.52
2019-02-02T05:33:17.443Z,96040.61
2019-02-02T05:35:20.184Z,96032.81
2019-02-02T05:37:23.085Z,96032.00
2019-02-02T05:39:25.931Z,96040.36
2019-02-02T05:41:28.794Z,96056.52
2019-02-02T05:43:31.758Z,96055.17
2019-02-02T05:45:34.687Z,96054.36
2019-02-02T05:47:37.613Z,96047.63
2019-02-02T05:49:40.462Z,96054.36
2019-02-02T05:51:43.419Z,96059.47
2019-02-02T05:53:46.476Z,96069.17
2019-02-02T05:55:49.793Z,96077.53
2019-02-02T05:57:52.940Z,96079.13
2019-02-02T05:59:55.815Z,96084.27
2019-02-02T06:01:58.693Z,96093.17
2019-02-02T06:04:01.504Z,96092.89
2019-02-02T06:06:05.370Z,96087.78
2019-02-02T06:08:08.309Z,96081.58
2019-02-02T06:10:12.668Z,96075.63
2019-02-02T06:12:17.246Z,96072.14
2019-02-02T06:14:20.271Z,96068.63
2019-02-02T06:16:24.336Z,96075.59
2019-02-02T06:18:28.509Z,96066.17
2019-02-02T06:20:31.589Z,96056.21
2019-02-02T06:22:34.359Z,96061.34
2019-02-02T06:24:37.213Z,96068.59
2019-02-02T06:26:40.161Z,96071.27
2019-02-02T06:28:43.188Z,96065.88
2019-02-02T06:30:45.994Z,96065.33
2019-02-02T06:32:48.903Z,96060.73
2019-02-02T06:34:51.807Z,96065.85
2019-02-02T06:36:54.554Z,96068.80
2019-02-02T06:38:57.495Z,96078.50
2019-02-02T06:41:00.367Z,96076.10
2019-02-02T06:43:04.470Z,96085.78
2019-02-02T06:45:10.417Z,96086.05
2019-02-02T06:47:14.420Z,96087.12
2019-02-02T06:49:17.263Z,96101.66
2019-02-02T06:51:21.317Z,96104.88
2019-02-02T06:53:25.939Z,96107.58
2019-02-02T06:55:29.895Z,96116.73
2019-02-02T06:57:32.756Z,96117.02
2019-02-02T06:59:35.687Z,96121.59
2019-02-02T07:01:38.516Z,96133.72
2019-02-02T07:03:47.657Z,96144.48
2019-02-02T07:05:46.687Z,96142.61
2019-02-02T07:07:49.685Z,96151.22
2019-02-02T07:09:52.697Z,96161.18
2019-02-02T07:11:55.481Z,96166.57
2019-02-02T07:13:58.453Z,96167.92
2019-02-02T07:16:01.319Z,96163.07
2019-02-02T07:18:04.279Z,96167.91
2019-02-02T07:20:08.663Z,96166.01
2019-02-02T07:22:11.627Z,96172.98
2019-02-02T07:24:14.489Z,96169.46
2019-02-02T07:26:17.338Z,96178.34
2019-02-02T07:28:20.363Z,96181.28
2019-02-02T07:30:28.589Z,96180.23
2019-02-02T07:32:27.903Z,96166.00
2019-02-02T07:34:30.994Z,96162.80
2019-02-02T07:36:33.904Z,96170.36
2019-02-02T07:38:36.818Z,96173.06
2019-02-02T07:40:42.408Z,96183.00
2019-02-02T07:42:45.359Z,96193.48
2019-02-02T07:44:49.402Z,96192.67
2019-02-02T07:46:52.291Z,96196.48
2019-02-02T07:48:55.348Z,96201.88
2019-02-02T07:50:58.208Z,96207.27
2019-02-02T07:53:01.075Z,96222.09
2019-02-02T07:55:04.124Z,96225.31
2019-02-02T07:57:07.140Z,96224.50
2019-02-02T07:59:10.274Z,96217.23
2019-02-02T08:01:13.264Z,96211.84
2019-02-02T08:03:16.130Z,96210.78
2019-02-02T08:05:18.974Z,96232.32
2019-02-02T08:07:21.872Z,96239.58
2019-02-02T08:09:24.738Z,96247.09
2019-02-02T08:11:30.728Z,96244.92
2019-02-02T08:13:33.599Z,96244.63
2019-02-02T08:15:36.596Z,96230.09
2019-02-02T08:17:39.339Z,96230.63
2019-02-02T08:19:42.303Z,96229.00
2019-02-02T08:21:45.271Z,96225.25
2019-02-02T08:23:48.038Z,96224.98
2019-02-02T08:25:51.038Z,96231.17
2019-02-02T08:27:53.902Z,96241.38
2019-02-02T08:29:56.785Z,96243.77
2019-02-02T08:31:59.711Z,96243.24
2019-02-02T08:34:02.708Z,96248.38
2019-02-02T08:36:08.316Z,96254.31
2019-02-02T08:38:12.256Z,96261.88
2019-02-02T08:40:15.565Z,96255.16
2019-02-02T08:42:18.557Z,96249.78
2019-02-02T08:44:22.425Z,96258.66
2019-02-02T08:46:26.603Z,96261.11
2019-02-02T08:48:32.122Z,96265.98
2019-02-02T08:50:37.712Z,96281.59
2019-02-02T08:52:40.694Z,96277.33
2019-02-02T08:54:43.621Z,96286.25
2019-02-02T08:56:48.498Z,96292.42
2019-02-02T08:58:51.515Z,96293.25
2019-02-02T09:01:04.332Z,96300.81
2019-02-02T09:03:02.193Z,96294.61
2019-02-02T09:05:05.716Z,96309.94
2019-02-02T09:07:08.705Z,96309.93
2019-02-02T09:09:11.624Z,96308.58
2019-02-02T09:11:14.680Z,96310.75
2019-02-02T09:13:17.708Z,96311.85
2019-02-02T09:15:21.693Z,96326.12
2019-02-02T09:17:24.595Z,96331.25
2019-02-02T09:19:30.665Z,96339.57
2019-02-02T09:21:33.533Z,96343.59
2019-02-02T09:23:36.355Z,96352.23
2019-02-02T09:25:39.492Z,96353.28
2019-02-02T09:27:42.431Z,96351.94
2019-02-02T09:29:47.819Z,96354.63
2019-02-02T09:31:52.162Z,96356.27
2019-02-02T09:33:55.041Z,96352.78
2019-02-02T09:35:57.776Z,96354.14
2019-02-02T09:38:00.796Z,96360.08
2019-02-02T09:40:04.699Z,96365.19
2019-02-02T09:42:09.994Z,96366.55
2019-02-02T09:44:13.025Z,96372.22
2019-02-02T09:46:16.059Z,96374.09
2019-02-02T09:48:19.130Z,96371.41
2019-02-02T09:50:23.252Z,96380.84
2019-02-02T09:52:26.297Z,96388.19
2019-02-02T09:54:29.282Z,96394.16
2019-02-02T09:56:32.307Z,96387.19
2019-02-02T09:58:35.484Z,96391.27
2019-02-02T10:00:38.604Z,96396.97
2019-02-02T10:02:41.592Z,96402.08
2019-02-02T10:04:44.817Z,96406.12
2019-02-02T10:06:47.773Z,96407.45
2019-02-02T10:08:50.809Z,96406.62
2019-02-02T10:10:53.815Z,96408.78
2019-02-02T10:12:57.073Z,96412.55
2019-02-02T10:15:00.099Z,96409.58
2019-02-02T10:17:03.310Z,96404.45
2019-02-02T10:19:06.396Z,96414.13
2019-02-02T10:21:09.407Z,96419.81
2019-02-02T10:23:12.217Z,96433.82
2019-02-02T10:25:17.359Z,96441.09
2019-02-02T10:27:20.476Z,96435.18
2019-02-02T10:29:23.334Z,96436.25
2019-02-02T10:31:26.293Z,96442.75
2019-02-02T10:33:29.151Z,96429.30
2019-02-02T10:35:32.223Z,96422.03
2019-02-02T10:37:36.218Z,96421.20
2019-02-02T10:39:39.123Z,96417.42
2019-02-02T10:41:42.127Z,96424.17
2019-02-02T10:43:45.011Z,96420.14
2019-02-02T10:45:47.804Z,96413.42
2019-02-02T10:47:50.591Z,96425.56
2019-02-02T10:49:54.091Z,96414.55
2019-02-02T10:51:58.016Z,96423.17
2019-02-02T10:54:02.008Z,96433.44
2019-02-02T10:56:04.993Z,96424.81
2019-02-02T10:58:07.895Z,96425.05
2019-02-02T11:00:14.286Z,96425.05
2019-02-02T11:02:19.469Z,96426.16
2019-02-02T11:04:22.753Z,96431.81
2019-02-02T11:06:26.607Z,96439.09
2019-02-02T11:08:29.484Z,96439.38
2019-02-02T11:10:32.660Z,96446.12
2019-02-02T11:12:35.475Z,96445.59
2019-02-02T11:14:38.444Z,96440.20
2019-02-02T11:16:41.522Z,96444.78
2019-02-02T11:18:44.744Z,96448.81
2019-02-02T11:20:48.597Z,96453.67
2019-02-02T11:22:51.574Z,96446.39
2019-02-02T11:24:55.620Z,96444.48
2019-02-02T11:26:58.604Z,96449.87
2019-02-02T11:29:02.211Z,96435.61
2019-02-02T11:31:05.326Z,96441.25
2019-02-02T11:33:08.225Z,96442.90
2019-02-02T11:35:12.277Z,96445.32
2019-02-02T11:37:15.034Z,96446.67
2019-02-02T11:39:17.929Z,96445.61
2019-02-02T11:41:20.948Z,96450.47
2019-02-02T11:43:23.987Z,96452.36
2019-02-02T11:45:27.259Z,96457.47
2019-02-02T11:47:30.153Z,96461.28
2019-02-02T11:49:33.181Z,96459.92
2019-02-02T11:51:36.204Z,96465.05
2019-02-02T11:53:38.948Z,96460.20
2019-02-02T11:55:42.132Z,96463.73
2019-02-02T11:57:45.121Z,96470.48
2019-02-02T11:59:48.046Z,96472.65
2019-02-02T12:01:50.996Z,96478.58
2019-02-02T12:03:56.911Z,96482.34
2019-02-02T12:06:00.299Z,96474.83
2019-02-02T12:08:06.563Z,96485.09
2019-02-02T12:10:10.947Z,96493.48
2019-02-02T12:12:14.445Z,96481.63
2019-02-02T12:14:17.394Z,96465.48
2019-02-02T12:16:20.312Z,96468.45
2019-02-02T12:18:23.170Z,96461.69
2019-02-02T12:20:26.033Z,96467.38
2019-02-02T12:22:30.108Z,96472.78
2019-02-02T12:24:34.961Z,96466.55
2019-02-02T12:26:37.928Z,96473.30
2019-02-02T12:28:41.142Z,96474.14
2019-02-02T12:30:44.275Z,96472.78
2019-02-02T12:32:47.231Z,96481.17
2019-02-02T12:34:50.182Z,96480.08
2019-02-02T12:36:53.247Z,96479.27
2019-02-02T12:38:56.083Z,96480.63
2019-02-02T12:40:59.726Z,96481.41
2019-02-02T12:43:03.791Z,96482.77
2019-02-02T12:45:10.329Z,96486.01
2019-02-02T12:47:13.572Z,96493.58
2019-02-02T12:49:16.281Z,96489.81
2019-02-02T12:51:19.197Z,96491.41
2019-02-02T12:53:22.109Z,96491.16
2019-02-02T12:55:26.086Z,96488.46
2019-02-02T12:57:29.144Z,96490.06
2019-02-02T12:59:32.130Z,96497.64
2019-02-02T13:01:35.191Z,96491.98
2019-02-02T13:03:38.071Z,96491.41
2019-02-02T13:05:40.962Z,96491.16
2019-02-02T13:07:43.980Z,96496.28
2019-02-02T13:09:49.738Z,96500.33
2019-02-02T13:11:52.672Z,96499.27
2019-02-02T13:13:56.521Z,96503.32
2019-02-02T13:15:59.559Z,96501.69
2019-02-02T13:18:02.459Z,96499.83
2019-02-02T13:20:06.106Z,96507.12
2019-02-02T13:22:08.938Z,96511.17
2019-02-02T13:24:12.814Z,96518.22
2019-02-02T13:26:15.751Z,96519.81
2019-02-02T13:28:18.602Z,96523.09
2019-02-02T13:30:23.878Z,96520.91
2019-02-02T13:32:26.736Z,96533.90
2019-02-02T13:34:29.592Z,96541.19
2019-02-02T13:36:32.496Z,96543.08
2019-02-02T13:38:35.448Z,96546.06
2019-02-02T13:40:38.461Z,96550.13
2019-02-02T13:42:50.265Z,96559.58
2019-02-02T13:44:53.089Z,96554.17
2019-02-02T13:46:56.064Z,96548.77
2019-02-02T13:48:59.050Z,96548.19
2019-02-02T13:51:01.896Z,96554.16
2019-02-02T13:53:05.967Z,96557.10
2019-02-02T13:55:08.916Z,96566.03
2019-02-02T13:57:11.769Z,96568.46
2019-02-02T13:59:14.670Z,96577.14
2019-02-02T14:01:20.042Z,96584.44
2019-02-02T14:03:23.029Z,96594.97
2019-02-02T14:05:27.375Z,96598.20
2019-02-02T14:07:30.355Z,96599.56
2019-02-02T14:09:33.157Z,96607.95
2019-02-02T14:11:36.063Z,96617.42
2019-02-02T14:13:39.142Z,96616.08
2019-02-02T14:15:42.158Z,96617.42
2019-02-02T14:17:45.073Z,96619.59
2019-02-02T14:19:47.955Z,96620.66
2019-02-02T14:21:50.906Z,96625.53
2019-02-02T14:23:54.836Z,96624.70
2019-02-02T14:25:57.747Z,96621.46
2019-02-02T14:28:00.856Z,96626.05
2019-02-02T14:30:13.199Z,96616.56
2019-02-02T14:32:16.211Z,96621.97
2019-02-02T14:34:21.751Z,96627.92
2019-02-02T14:36:24.652Z,96636.30
2019-02-02T14:38:27.609Z,96635.75
2019-02-02T14:40:30.531Z,96628.45
2019-02-02T14:42:33.376Z,96628.99
2019-02-02T14:44:36.128Z,96621.70
2019-02-02T14:46:41.631Z,96627.94
2019-02-02T14:48:44.548Z,96634.70
2019-02-02T14:50:47.500Z,96640.12
2019-02-02T14:52:51.012Z,96647.14
2019-02-02T14:54:53.942Z,96639.55
2019-02-02T14:56:56.819Z,96642.27
2019-02-02T14:58:59.957Z,96650.13
2019-02-02T15:01:03.986Z,96647.44
2019-02-02T15:03:07.232Z,96657.99
2019-02-02T15:05:10.071Z,96665.87
2019-02-02T15:07:13.134Z,96669.93
2019-02-02T15:09:16.056Z,96676.95
2019-02-02T15:11:18.914Z,96676.66
2019-02-02T15:13:21.819Z,96683.71
2019-02-02T15:15:24.720Z,96683.43
2019-02-02T15:17:27.677Z,96684.52
2019-02-02T15:19:30.544Z,96685.59
2019-02-02T15:21:33.363Z,96686.13
2019-02-02T15:23:36.482Z,96695.34
2019-02-02T15:25:39.352Z,96710.48
2019-02-02T15:27:45.375Z,96708.87
2019-02-02T15:29:48.355Z,96715.64
2019-02-02T15:31:51.242Z,96725.92
2019-02-02T15:33:55.197Z,96726.17
2019-02-02T15:35:57.978Z,96718.88
2019-02-02T15:38:00.946Z,96718.59
2019-02-02T15:40:04.482Z,96715.09
2019-02-02T15:42:07.289Z,96713.17
2019-02-02T15:44:10.212Z,96718.33
2019-02-02T15:46:13.067Z,96716.45
2019-02-02T15:48:15.912Z,96717.23
2019-02-02T15:50:18.728Z,96720.77
2019-02-02T15:52:21.717Z,96725.09
2019-02-02T15:54:24.655Z,96717.52
2019-02-02T15:56:27.611Z,96728.33
2019-02-02T15:58:33.815Z,96731.03
2019-02-02T16:00:37.659Z,96737.25
2019-02-02T16:02:40.677Z,96738.60
2019-02-02T16:04:43.752Z,96736.42
2019-02-02T16:06:46.605Z,96736.42
2019-02-02T16:08:49.631Z,96739.41
2019-02-02T16:10:52.500Z,96745.87
2019-02-02T16:12:55.383Z,96746.69
2019-02-02T16:14:58.345Z,96749.64
2019-02-02T16:17:01.221Z,96746.69
2019-02-02T16:19:05.988Z,96738.28
2019-02-02T16:21:09.260Z,96733.40
2019-02-02T16:23:12.275Z,96745.31
2019-02-02T16:25:15.015Z,96746.39
2019-02-02T16:27:17.999Z,96748.28
2019-02-02T16:29:21.050Z,96750.45
2019-02-02T16:31:23.992Z,96745.56
2019-02-02T16:33:26.975Z,96737.19
2019-02-02T16:35:29.946Z,96732.84
2019-02-02T16:37:32.917Z,96741.77
2019-02-02T16:39:35.663Z,96749.59
2019-02-02T16:41:38.534Z,96759.28
2019-02-02T16:43:43.330Z,96760.09
2019-02-02T16:45:46.520Z,96763.88
2019-02-02T16:47:49.504Z,96763.11
2019-02-02T16:49:52.463Z,96761.51
2019-02-02T16:51:55.357Z,96775.56
2019-02-02T16:53:58.278Z,96779.63
2019-02-02T16:56:01.671Z,96783.69
2019-02-02T16:58:04.616Z,96793.44
2019-02-02T17:00:11.995Z,96796.39
2019-02-02T17:02:14.742Z,96803.14
2019-02-02T17:04:17.689Z,96807.71
2019-02-02T17:06:20.615Z,96800.37
2019-02-02T17:08:23.610Z,96806.61
2019-02-02T17:10:31.420Z,96805.78
2019-02-02T17:12:34.282Z,96814.70
2019-02-02T17:14:37.214Z,96811.70
2019-02-02T17:16:40.349Z,96814.16
2019-02-02T17:18:45.195Z,96823.88
2019-02-02T17:20:48.127Z,96825.52
2019-02-02T17:22:50.936Z,96823.09
2019-02-02T17:24:53.989Z,96828.50
2019-02-02T17:26:58.973Z,96828.50
2019-02-02T17:29:03.541Z,96831.96
2019-02-02T17:31:06.536Z,96846.23
2019-02-02T17:33:11.946Z,96849.75
2019-02-02T17:35:15.440Z,96855.13
2019-02-02T17:37:18.299Z,96854.83
2019-02-02T17:39:21.876Z,96852.67
2019-02-02T17:41:24.927Z,96850.50
2019-02-02T17:43:28.036Z,96858.85
2019-02-02T17:45:31.265Z,96861.55
2019-02-02T17:47:35.127Z,96868.33
2019-02-02T17:49:38.167Z,96871.86
2019-02-02T17:51:41.152Z,96873.50
2019-02-02T17:53:44.200Z,96877.81
2019-02-02T17:55:47.264Z,96879.98
2019-02-02T17:57:50.243Z,96888.38
2019-02-02T17:59:54.433Z,96878.39
2019-02-02T18:02:00.554Z,96888.11
2019-02-02T18:04:06.068Z,96891.63
2019-02-02T18:06:08.877Z,96893.80
2019-02-02T18:08:11.880Z,96888.38
2019-02-02T18:10:15.159Z,96896.20
2019-02-02T18:12:18.005Z,96901.61
2019-02-02T18:14:20.787Z,96910.80
2019-02-02T18:16:23.841Z,96909.95
2019-02-02T18:18:27.093Z,96911.46
2019-02-02T18:20:30.057Z,96909.44
2019-02-02T18:22:32.987Z,96914.71
2019-02-02T18:24:35.982Z,96913.54
2019-02-02T18:26:38.873Z,96919.15
2019-02-02T18:28:44.918Z,96919.66
2019-02-02T18:30:47.853Z,96923.70
2019-02-02T18:32:50.651Z,96918.89
2019-02-02T18:34:53.731Z,96914.50
2019-02-02T18:36:56.790Z,96921.52
2019-02-02T18:38:59.630Z,96922.49
2019-02-02T18:41:02.672Z,96924.66
2019-02-02T18:43:05.594Z,96921.48
2019-02-02T18:45:11.105Z,96924.27
2019-02-02T18:47:14.268Z,96929.44
2019-02-02T18:49:17.232Z,96931.95
2019-02-02T18:51:20.201Z,96929.02
2019-02-02T18:53:25.004Z,96932.27
2019-02-02T18:55:36.069Z,96937.69
2019-02-02T18:57:40.080Z,96945.84
2019-02-02T18:59:43.054Z,96948.27
2019-02-02T19:01:46.015Z,96952.54
2019-02-02T19:03:49.005Z,96958.69
2019-02-02T19:05:54.820Z,96966.78
2019-02-02T19:07:57.709Z,96969.77
2019-02-02T19:10:00.880Z,96977.64
2019-02-02T19:12:03.938Z,96992.22
2019-02-02T19:14:07.005Z,96991.40
2019-02-02T19:16:10.159Z,96995.22
2019-02-02T19:18:13.098Z,96993.59
2019-02-02T19:20:17.823Z,97000.11
2019-02-02T19:22:20.885Z,96996.59
2019-02-02T19:24:26.163Z,96993.59
2019-02-02T19:26:29.538Z,96998.15
2019-02-02T19:28:39.963Z,97001.12
2019-02-02T19:30:41.646Z,97005.70
2019-02-02T19:32:44.756Z,97013.00
2019-02-02T19:34:48.029Z,97013.30
2019-02-02T19:36:51.098Z,97012.23
2019-02-02T19:38:54.239Z,97004.14
2019-02-02T19:40:57.866Z,97003.63
2019-02-02T19:43:00.888Z,97007.15
2019-02-02T19:45:04.216Z,97002.04
2019-02-02T19:47:15.866Z,97003.69
2019-02-02T19:49:12.362Z,97010.70
2019-02-02T19:51:15.518Z,97004.47
2019-02-02T19:53:19.684Z,97005.03
2019-02-02T19:55:23.666Z,97012.31
2019-02-02T19:57:26.853Z,97019.30
2019-02-02T19:59:29.896Z,97020.36
2019-02-02T20:01:33.032Z,97022.22
2019-02-02T20:03:36.104Z,97035.69
2019-02-02T20:05:39.350Z,97046.70
2019-02-02T20:07:42.317Z,97046.14
2019-02-02T20:09:45.311Z,97050.19
2019-02-02T20:11:48.471Z,97056.94
2019-02-02T20:13:51.603Z,97050.19
2019-02-02T20:15:55.732Z,97049.93
2019-02-02T20:18:09.323Z,97047.78
2019-02-02T20:20:05.905Z,97057.80
2019-02-02T20:22:08.955Z,97062.16
2019-02-02T20:25:00.553Z,97044.17
2019-02-02T20:27:03.457Z,97049.25
2019-02-02T20:29:06.417Z,97061.16
2019-02-02T20:31:09.492Z,97069.85
2019-02-02T20:33:12.350Z,97064.71
2019-02-02T20:35:15.798Z,97067.41
2019-02-02T20:37:19.747Z,97063.09
2019-02-02T20:39:22.748Z,97063.08
2019-02-02T20:41:25.683Z,97061.40
2019-02-02T20:43:28.698Z,97058.41
2019-02-02T20:45:33.174Z,97060.02
2019-02-02T20:47:36.258Z,97062.70
2019-02-02T20:49:39.155Z,97062.92
2019-02-02T20:51:42.642Z,97064.05
2019-02-02T20:53:45.622Z,97075.41
2019-02-02T20:55:49.611Z,97078.95
2019-02-02T20:57:52.694Z,97076.25
2019-02-02T20:59:55.689Z,97079.28
2019-02-02T21:01:59.133Z,97086.84
2019-02-02T21:04:02.129Z,97084.73
2019-02-02T21:06:04.999Z,97088.52
2019-02-02T21:08:08.007Z,97078.48
2019-02-02T21:10:13.661Z,97078.72
2019-02-02T21:12:16.805Z,97086.02
2019-02-02T21:14:20.170Z,97115.77
2019-02-02T21:16:24.555Z,97127.39
2019-02-02T21:18:27.784Z,97117.94
2019-02-02T21:20:32.286Z,97111.45
2019-02-02T21:22:35.756Z,97117.88
2019-02-02T21:24:39.560Z,97129.27
2019-02-02T21:26:43.957Z,97122.78
2019-02-02T21:28:50.619Z,97123.08
2019-02-02T21:30:52.052Z,97124.66
2019-02-02T21:32:55.049Z,97131.38
2019-02-02T21:34:58.207Z,97134.38
2019-02-02T21:37:01.347Z,97136.22
2019-02-02T21:39:07.105Z,97137.60
2019-02-02T21:41:10.281Z,97147.09
2019-02-02T21:43:13.270Z,97151.44
2019-02-02T21:45:16.169Z,97152.42
2019-02-02T21:47:19.690Z,97150.22
2019-02-02T21:49:22.815Z,97156.70
2019-02-02T21:51:25.811Z,97159.14
2019-02-02T21:53:28.932Z,97168.53
2019-02-02T21:55:32.864Z,97170.80
2019-02-02T21:57:35.894Z,97170.80
2019-02-02T21:59:38.810Z,97188.05
2019-02-02T22:01:42.000Z,97190.67
2019-02-02T22:03:45.153Z,97195.81
2019-02-02T22:05:48.306Z,97196.04
2019-02-02T22:07:51.374Z,97201.56
2019-02-02T22:09:54.733Z,97201.41
2019-02-02T22:11:58.008Z,97205.34
2019-02-02T22:14:04.310Z,97204.98
2019-02-02T22:16:09.348Z,97206.30
2019-02-02T22:18:12.205Z,97202.78
2019-02-02T22:20:15.805Z,97204.65
2019-02-02T22:22:19.960Z,97198.95
2019-02-02T22:24:23.176Z,97193.55
2019-02-02T22:26:26.270Z,97189.51
2019-02-02T22:28:29.469Z,97188.42
2019-02-02T22:30:33.771Z,97186.59
2019-02-02T22:32:37.886Z,97196.89
2019-02-02T22:34:40.829Z,97195.36
2019-02-02T22:36:44.869Z,97192.78
2019-02-02T22:38:51.757Z,97199.12
2019-02-02T22:40:55.363Z,97198.10
2019-02-02T22:42:58.451Z,97192.52
2019-02-02T22:45:01.635Z,97191.53
2019-02-02T22:47:05.622Z,97199.14
2019-02-02T22:49:08.964Z,97190.85
2019-02-02T22:51:12.458Z,97183.58
2019-02-02T22:53:15.470Z,97186.28
2019-02-02T22:55:18.951Z,97184.33
2019-02-02T22:57:22.323Z,97198.63
2019-02-02T22:59:25.557Z,97201.06
2019-02-02T23:01:48.307Z,97202.11
2019-02-02T23:04:24.911Z,97201.88
2019-02-02T23:06:41.025Z,97197.60
2019-02-02T23:09:14.221Z,97205.73
2019-02-02T23:11:46.765Z,97207.36
2019-02-02T23:14:40.819Z,97213.02
2019-02-02T23:16:43.865Z,97217.59
2019-02-02T23:18:48.732Z,97222.95
2019-02-02T23:20:54.824Z,97222.43
2019-02-02T23:22:58.211Z,97225.66
2019-02-02T23:25:01.152Z,97219.77
2019-02-02T23:27:04.227Z,97221.15
2019-02-02T23:29:07.707Z,97221.75
2019-02-02T23:31:10.727Z,97222.38
2019-02-02T23:33:13.970Z,97215.56
2019-02-02T23:35:16.854Z,97224.94
2019-02-02T23:37:19.846Z,97233.30
2019-02-02T23:39:23.939Z,97230.60
2019-02-02T23:41:26.999Z,97227.11
2019-02-02T23:43:30.317Z,97225.73
2019-02-02T23:45:33.213Z,97238.67
2019-02-02T23:47:36.122Z,97244.89
2019-02-02T23:49:39.045Z,97243.84
2019-02-02T23:51:42.063Z,97248.72
2019-02-02T23:53:45.348Z,97249.87
2019-02-02T23:55:48.314Z,97245.27
2019-02-02T23:57:51.216Z,97252.28
2019-02-02T23:59:54.264Z,97244.96
